sensor_id;sensor_type;location;lat;lon;timestamp;pressure;altitude;pressure_sealevel;temperature;humidity
6425;BME280;12193;42.642;23.384;2023-04-26T03:08:34;93450.69;;;7.31;100.00
6425;BME280;12193;42.642;23.384;2023-04-26T03:11:04;93444.75;;;7.30;100.00
6425;BME280;12193;42.642;23.384;2023-04-26T03:13:33;93447.03;;;7.45;100.00
6425;BME280;12193;42.642;23.384;2023-04-26T03:16:03;93440.31;;;7.37;100.00
6425;BME280;12193;42.642;23.384;2023-04-26T03:18:33;93435.72;;;7.39;100.00
6425;BME280;12193;42.642;23.384;2023-04-26T03:21:02;93430.28;;;7.54;100.00
6425;BME280;12193;42.642;23.384;2023-04-26T03:23:35;93435.59;;;7.90;100.00
6425;BME280;12193;42.642;23.384;2023-04-26T03:26:04;93437.34;;;7.96;100.00
6425;BME280;12193;42.642;23.384;2023-04-26T03:28:33;93439.69;;;8.04;100.00
6425;BME280;12193;42.642;23.384;2023-04-26T03:31:03;93438.41;;;7.88;100.00
6425;BME280;12193;42.642;23.384;2023-04-26T03:33:32;93440.06;;;7.76;100.00
6425;BME280;12193;42.642;23.384;2023-04-26T03:36:02;93450.53;;;7.88;100.00
6425;BME280;12193;42.642;23.384;2023-04-26T03:38:34;93445.00;;;7.84;100.00
6425;BME280;12193;42.642;23.384;2023-04-26T03:41:04;93450.53;;;7.88;100.00
6425;BME280;12193;42.642;23.384;2023-04-26T03:43:33;93442.53;;;7.96;100.00
6425;BME280;12193;42.642;23.384;2023-04-26T03:46:03;93439.94;;;7.96;100.00
6425;BME280;12193;42.642;23.384;2023-04-26T03:48:33;93444.47;;;8.00;100.00
6425;BME280;12193;42.642;23.384;2023-04-26T03:51:02;93449.97;;;8.10;100.00
6425;BME280;12193;42.642;23.384;2023-04-26T03:53:34;93450.81;;;8.35;100.00
6425;BME280;12193;42.642;23.384;2023-04-26T03:56:03;93448.41;;;8.33;100.00
6425;BME280;12193;42.642;23.384;2023-04-26T03:58:33;93453.72;;;8.21;100.00
6425;BME280;12193;42.642;23.384;2023-04-26T04:01:02;93451.50;;;8.42;100.00
6425;BME280;12193;42.642;23.384;2023-04-26T04:03:32;93451.34;;;8.61;100.00
6425;BME280;12193;42.642;23.384;2023-04-26T04:06:01;93457.81;;;8.70;100.00
6425;BME280;12193;42.642;23.384;2023-04-26T04:08:30;93459.38;;;8.96;100.00
6425;BME280;12193;42.642;23.384;2023-04-26T04:11:03;93470.16;;;8.93;100.00
6425;BME280;12193;42.642;23.384;2023-04-26T04:13:32;93464.75;;;8.94;100.00
6425;BME280;12193;42.642;23.384;2023-04-26T04:16:01;93479.50;;;9.12;100.00
6425;BME280;12193;42.642;23.384;2023-04-26T04:18:32;93480.09;;;9.14;100.00
6425;BME280;12193;42.642;23.384;2023-04-26T04:21:01;93464.38;;;8.91;100.00
6425;BME280;12193;42.642;23.384;2023-04-26T04:23:31;93477.63;;;8.83;100.00
6425;BME280;12193;42.642;23.384;2023-04-26T04:26:04;93478.13;;;8.73;100.00
6425;BME280;12193;42.642;23.384;2023-04-26T04:28:34;93474.94;;;8.89;100.00
6425;BME280;12193;42.642;23.384;2023-04-26T04:31:03;93477.25;;;9.15;100.00
6425;BME280;12193;42.642;23.384;2023-04-26T04:33:33;93485.25;;;9.31;100.00
6425;BME280;12193;42.642;23.384;2023-04-26T04:36:03;93494.09;;;9.42;100.00
6425;BME280;12193;42.642;23.384;2023-04-26T04:38:33;93493.50;;;9.58;100.00
6425;BME280;12193;42.642;23.384;2023-04-26T04:41:05;93480.75;;;9.56;100.00
6425;BME280;12193;42.642;23.384;2023-04-26T04:43:35;93486.50;;;9.58;100.00
6425;BME280;12193;42.642;23.384;2023-04-26T04:46:04;93495.19;;;9.52;100.00
6425;BME280;12193;42.642;23.384;2023-04-26T04:48:34;93482.84;;;9.66;100.00
6425;BME280;12193;42.642;23.384;2023-04-26T04:51:04;93473.19;;;9.84;100.00
6425;BME280;12193;42.642;23.384;2023-04-26T04:53:33;93493.97;;;9.96;100.00
6425;BME280;12193;42.642;23.384;2023-04-26T04:56:06;93490.34;;;10.15;100.00
6425;BME280;12193;42.642;23.384;2023-04-26T04:58:35;93478.06;;;9.92;100.00
6425;BME280;12193;42.642;23.384;2023-04-26T05:01:05;93486.59;;;10.11;100.00
6425;BME280;12193;42.642;23.384;2023-04-26T05:03:34;93494.97;;;10.24;100.00
6425;BME280;12193;42.642;23.384;2023-04-26T05:06:04;93496.94;;;10.40;100.00
6425;BME280;12193;42.642;23.384;2023-04-26T05:08:34;93490.09;;;10.57;100.00
6425;BME280;12193;42.642;23.384;2023-04-26T05:11:06;93495.16;;;10.75;100.00
6425;BME280;12193;42.642;23.384;2023-04-26T05:13:35;93504.19;;;10.84;100.00
6425;BME280;12193;42.642;23.384;2023-04-26T05:16:05;93495.25;;;10.91;100.00
6425;BME280;12193;42.642;23.384;2023-04-26T05:18:34;93491.63;;;11.15;100.00
6425;BME280;12193;42.642;23.384;2023-04-26T05:21:04;93500.78;;;11.29;100.00
6425;BME280;12193;42.642;23.384;2023-04-26T05:23:33;93504.41;;;11.17;100.00
6425;BME280;12193;42.642;23.384;2023-04-26T05:26:06;93507.78;;;11.17;100.00
6425;BME280;12193;42.642;23.384;2023-04-26T05:28:35;93504.88;;;10.91;100.00
6425;BME280;12193;42.642;23.384;2023-04-26T05:31:05;93511.88;;;11.02;100.00
6425;BME280;12193;42.642;23.384;2023-04-26T05:33:34;93509.81;;;11.27;100.00
6425;BME280;12193;42.642;23.384;2023-04-26T05:36:04;93515.97;;;11.71;100.00
6425;BME280;12193;42.642;23.384;2023-04-26T05:38:34;93509.38;;;12.08;100.00
6425;BME280;12193;42.642;23.384;2023-04-26T05:41:06;93513.16;;;12.61;100.00
6425;BME280;12193;42.642;23.384;2023-04-26T05:43:36;93511.19;;;13.18;100.00
6425;BME280;12193;42.642;23.384;2023-04-26T05:46:05;93515.63;;;13.39;100.00
6425;BME280;12193;42.642;23.384;2023-04-26T05:48:34;93521.19;;;13.26;100.00
6425;BME280;12193;42.642;23.384;2023-04-26T05:51:04;93514.34;;;13.03;100.00
6425;BME280;12193;42.642;23.384;2023-04-26T05:53:33;93516.50;;;13.06;100.00
6425;BME280;12193;42.642;23.384;2023-04-26T05:56:06;93518.25;;;13.39;100.00
6425;BME280;12193;42.642;23.384;2023-04-26T05:58:35;93519.00;;;13.01;100.00
6425;BME280;12193;42.642;23.384;2023-04-26T06:01:05;93511.09;;;13.13;100.00
6425;BME280;12193;42.642;23.384;2023-04-26T06:03:34;93512.31;;;13.27;100.00
6425;BME280;12193;42.642;23.384;2023-04-26T06:06:04;93511.84;;;13.30;100.00
6425;BME280;12193;42.642;23.384;2023-04-26T06:08:34;93517.84;;;13.68;100.00
6425;BME280;12193;42.642;23.384;2023-04-26T06:11:06;93510.13;;;13.56;100.00
6425;BME280;12193;42.642;23.384;2023-04-26T06:13:35;93516.16;;;14.05;100.00
6425;BME280;12193;42.642;23.384;2023-04-26T06:16:05;93510.47;;;14.60;97.54
6425;BME280;12193;42.642;23.384;2023-04-26T06:18:35;93510.94;;;14.05;97.45
6425;BME280;12193;42.642;23.384;2023-04-26T06:21:04;93512.09;;;13.92;99.19
6425;BME280;12193;42.642;23.384;2023-04-26T06:23:34;93509.56;;;13.97;98.63
6425;BME280;12193;42.642;23.384;2023-04-26T06:26:06;93515.03;;;13.74;98.89
6425;BME280;12193;42.642;23.384;2023-04-26T06:28:35;93505.03;;;14.36;97.88
6425;BME280;12193;42.642;23.384;2023-04-26T06:31:05;93512.41;;;15.06;90.65
6425;BME280;12193;42.642;23.384;2023-04-26T06:33:34;93516.91;;;15.52;88.18
6425;BME280;12193;42.642;23.384;2023-04-26T06:36:04;93509.00;;;15.47;85.46
6425;BME280;12193;42.642;23.384;2023-04-26T06:38:34;93505.94;;;14.82;89.92
6425;BME280;12193;42.642;23.384;2023-04-26T06:41:06;93501.03;;;14.59;94.21
6425;BME280;12193;42.642;23.384;2023-04-26T06:43:35;93507.78;;;14.51;97.62
6425;BME280;12193;42.642;23.384;2023-04-26T06:46:04;93500.19;;;14.01;99.54
6425;BME280;12193;42.642;23.384;2023-04-26T06:48:34;93506.34;;;13.48;100.00
6425;BME280;12193;42.642;23.384;2023-04-26T06:51:06;93512.66;;;13.30;100.00
6425;BME280;12193;42.642;23.384;2023-04-26T06:53:36;93505.50;;;12.71;100.00
6425;BME280;12193;42.642;23.384;2023-04-26T06:56:08;93505.94;;;12.36;99.05
6425;BME280;12193;42.642;23.384;2023-04-26T06:58:37;93516.22;;;11.98;96.97
6425;BME280;12193;42.642;23.384;2023-04-26T07:01:06;93517.16;;;11.92;97.04
6425;BME280;12193;42.642;23.384;2023-04-26T07:03:36;93513.00;;;12.51;95.10
6425;BME280;12193;42.642;23.384;2023-04-26T07:06:07;93519.97;;;14.14;86.04
6425;BME280;12193;42.642;23.384;2023-04-26T07:08:37;93519.94;;;14.98;80.13
6425;BME280;12193;42.642;23.384;2023-04-26T07:11:12;93527.94;;;16.20;71.31
6425;BME280;12193;42.642;23.384;2023-04-26T07:13:41;93516.50;;;16.76;65.48
6425;BME280;12193;42.642;23.384;2023-04-26T07:16:11;93514.94;;;17.35;63.31
6425;BME280;12193;42.642;23.384;2023-04-26T07:18:40;93518.88;;;17.17;62.85
6425;BME280;12193;42.642;23.384;2023-04-26T07:21:10;93521.38;;;16.28;65.16
6425;BME280;12193;42.642;23.384;2023-04-26T07:23:39;93514.91;;;16.55;65.30
6425;BME280;12193;42.642;23.384;2023-04-26T07:26:12;93517.56;;;17.00;62.49
6425;BME280;12193;42.642;23.384;2023-04-26T07:28:42;93515.63;;;17.70;61.47
6425;BME280;12193;42.642;23.384;2023-04-26T07:31:11;93515.72;;;18.18;59.73
6425;BME280;12193;42.642;23.384;2023-04-26T07:33:40;93520.00;;;17.94;60.41
6425;BME280;12193;42.642;23.384;2023-04-26T07:36:10;93517.81;;;17.28;61.81
6425;BME280;12193;42.642;23.384;2023-04-26T07:38:39;93525.66;;;16.44;67.09
6425;BME280;12193;42.642;23.384;2023-04-26T07:41:08;93524.59;;;15.27;68.59
6425;BME280;12193;42.642;23.384;2023-04-26T07:43:41;93524.72;;;15.98;68.36
6425;BME280;12193;42.642;23.384;2023-04-26T07:46:10;93521.50;;;17.12;62.00
6425;BME280;12193;42.642;23.384;2023-04-26T07:48:39;93524.41;;;17.31;59.36
6425;BME280;12193;42.642;23.384;2023-04-26T07:51:10;93528.84;;;16.75;61.20
6425;BME280;12193;42.642;23.384;2023-04-26T07:53:40;93528.31;;;16.59;59.63
6425;BME280;12193;42.642;23.384;2023-04-26T07:56:09;93531.50;;;16.80;59.41
6425;BME280;12193;42.642;23.384;2023-04-26T07:58:41;93532.78;;;17.03;59.88
6425;BME280;12193;42.642;23.384;2023-04-26T08:01:11;93526.69;;;16.43;59.73
6425;BME280;12193;42.642;23.384;2023-04-26T08:03:41;93542.09;;;15.58;61.53
6425;BME280;12193;42.642;23.384;2023-04-26T08:06:10;93534.28;;;15.68;62.43
6425;BME280;12193;42.642;23.384;2023-04-26T08:08:39;93528.84;;;17.05;58.88
6425;BME280;12193;42.642;23.384;2023-04-26T08:11:14;93547.25;;;17.30;53.54
6425;BME280;12193;42.642;23.384;2023-04-26T08:13:46;93537.94;;;17.92;52.54
6425;BME280;12193;42.642;23.384;2023-04-26T08:16:16;93534.50;;;17.87;53.23
6425;BME280;12193;42.642;23.384;2023-04-26T08:18:45;93526.97;;;17.61;54.49
6425;BME280;12193;42.642;23.384;2023-04-26T08:21:14;93530.16;;;16.93;55.16
6425;BME280;12193;42.642;23.384;2023-04-26T08:23:44;93534.00;;;15.69;59.30
6425;BME280;12193;42.642;23.384;2023-04-26T08:26:13;93529.31;;;15.71;61.03
6425;BME280;12193;42.642;23.384;2023-04-26T08:28:44;93532.28;;;15.39;61.45
6425;BME280;12193;42.642;23.384;2023-04-26T08:31:14;93534.03;;;15.28;62.96
6425;BME280;12193;42.642;23.384;2023-04-26T08:33:44;93533.47;;;14.32;65.42
6425;BME280;12193;42.642;23.384;2023-04-26T08:36:13;93526.22;;;13.70;67.45
6425;BME280;12193;42.642;23.384;2023-04-26T08:38:42;93533.38;;;14.01;67.86
6425;BME280;12193;42.642;23.384;2023-04-26T08:41:12;93539.22;;;14.56;66.60
6425;BME280;12193;42.642;23.384;2023-04-26T08:43:45;93535.66;;;14.40;66.36
6425;BME280;12193;42.642;23.384;2023-04-26T08:46:18;93544.97;;;14.31;66.57
6425;BME280;12193;42.642;23.384;2023-04-26T08:48:53;93542.78;;;14.02;65.75
6425;BME280;12193;42.642;23.384;2023-04-26T08:51:25;93531.75;;;13.95;68.45
6425;BME280;12193;42.642;23.384;2023-04-26T08:53:57;93538.66;;;14.54;66.55
6425;BME280;12193;42.642;23.384;2023-04-26T08:56:27;93541.22;;;15.11;64.05
6425;BME280;12193;42.642;23.384;2023-04-26T08:59:00;93540.63;;;15.77;61.19
6425;BME280;12193;42.642;23.384;2023-04-26T09:01:30;93540.91;;;15.85;60.32
6425;BME280;12193;42.642;23.384;2023-04-26T09:04:01;93538.13;;;15.56;60.77
6425;BME280;12193;42.642;23.384;2023-04-26T09:06:31;93539.47;;;14.85;63.25
6425;BME280;12193;42.642;23.384;2023-04-26T09:09:02;93538.13;;;15.14;63.38
6425;BME280;12193;42.642;23.384;2023-04-26T09:11:51;93545.34;;;15.34;63.43
6425;BME280;12193;42.642;23.384;2023-04-26T09:14:23;93547.75;;;15.09;62.27
6425;BME280;12193;42.642;23.384;2023-04-26T09:16:53;93546.38;;;14.70;62.24
6425;BME280;12193;42.642;23.384;2023-04-26T09:19:34;93551.03;;;14.63;64.69
6425;BME280;12193;42.642;23.384;2023-04-26T09:22:04;93549.25;;;14.68;62.99
6425;BME280;12193;42.642;23.384;2023-04-26T09:24:47;93543.22;;;14.68;63.02
6425;BME280;12193;42.642;23.384;2023-04-26T09:27:17;93544.50;;;13.91;64.48
6425;BME280;12193;42.642;23.384;2023-04-26T09:30:03;93558.56;;;14.33;64.30
6425;BME280;12193;42.642;23.384;2023-04-26T09:32:52;93552.66;;;14.16;64.10
6425;BME280;12193;42.642;23.384;2023-04-26T09:35:25;93553.66;;;13.72;65.89
6425;BME280;12193;42.642;23.384;2023-04-26T09:37:56;93551.28;;;13.92;65.83
6425;BME280;12193;42.642;23.384;2023-04-26T09:40:29;93553.31;;;14.07;65.08
6425;BME280;12193;42.642;23.384;2023-04-26T09:43:03;93555.06;;;14.01;64.61
6425;BME280;12193;42.642;23.384;2023-04-26T09:45:43;93547.00;;;14.51;63.00
6425;BME280;12193;42.642;23.384;2023-04-26T09:48:18;93544.94;;;14.53;63.30
6425;BME280;12193;42.642;23.384;2023-04-26T09:50:49;93546.06;;;14.93;62.25
6425;BME280;12193;42.642;23.384;2023-04-26T09:53:30;93532.25;;;15.02;61.30
6425;BME280;12193;42.642;23.384;2023-04-26T09:56:06;93543.69;;;14.91;60.48
6425;BME280;12193;42.642;23.384;2023-04-26T09:58:37;93536.81;;;14.54;61.85
6425;BME280;12193;42.642;23.384;2023-04-26T10:01:10;93539.78;;;14.62;62.58
6425;BME280;12193;42.642;23.384;2023-04-26T10:03:39;93543.91;;;15.21;62.56
6425;BME280;12193;42.642;23.384;2023-04-26T10:06:11;93549.22;;;15.67;60.32
6425;BME280;12193;42.642;23.384;2023-04-26T10:08:40;93529.75;;;15.17;57.89
6425;BME280;12193;42.642;23.384;2023-04-26T10:11:10;93541.69;;;15.03;61.67
6425;BME280;12193;42.642;23.384;2023-04-26T10:13:40;93538.25;;;14.98;60.08
6425;BME280;12193;42.642;23.384;2023-04-26T10:16:13;93533.81;;;15.86;56.21
6425;BME280;12193;42.642;23.384;2023-04-26T10:18:42;93524.53;;;16.20;56.41
6425;BME280;12193;42.642;23.384;2023-04-26T10:21:13;93525.66;;;15.77;58.19
6425;BME280;12193;42.642;23.384;2023-04-26T10:23:46;93530.63;;;15.74;57.65
6425;BME280;12193;42.642;23.384;2023-04-26T10:29:17;93521.50;;;15.81;55.39
6425;BME280;12193;42.642;23.384;2023-04-26T10:32:07;93515.47;;;16.77;53.42
6425;BME280;12193;42.642;23.384;2023-04-26T10:34:41;93519.16;;;16.86;52.77
6425;BME280;12193;42.642;23.384;2023-04-26T10:37:12;93524.31;;;15.70;52.84
6425;BME280;12193;42.642;23.384;2023-04-26T10:39:43;93514.59;;;15.24;56.15
6425;BME280;12193;42.642;23.384;2023-04-26T10:42:23;93521.13;;;14.54;57.34
6425;BME280;12193;42.642;23.384;2023-04-26T10:44:54;93518.81;;;14.57;58.64
6425;BME280;12193;42.642;23.384;2023-04-26T10:47:31;93523.06;;;14.37;58.61
6425;BME280;12193;42.642;23.384;2023-04-26T10:50:06;93518.91;;;14.67;58.60
6425;BME280;12193;42.642;23.384;2023-04-26T10:52:38;93517.75;;;14.54;56.88
6425;BME280;12193;42.642;23.384;2023-04-26T10:55:41;93512.34;;;14.65;56.16
6425;BME280;12193;42.642;23.384;2023-04-26T10:58:27;93514.41;;;15.26;55.34
6425;BME280;12193;42.642;23.384;2023-04-26T11:01:03;93514.13;;;15.27;53.64
6425;BME280;12193;42.642;23.384;2023-04-26T11:03:36;93509.72;;;15.28;54.24
6425;BME280;12193;42.642;23.384;2023-04-26T11:06:06;93515.91;;;15.58;53.93
6425;BME280;12193;42.642;23.384;2023-04-26T11:08:39;93523.72;;;15.53;52.85
6425;BME280;12193;42.642;23.384;2023-04-26T11:11:10;93527.13;;;15.49;51.96
6425;BME280;12193;42.642;23.384;2023-04-26T11:13:41;93515.53;;;15.40;53.60
6425;BME280;12193;42.642;23.384;2023-04-26T11:16:11;93522.97;;;15.21;53.43
6425;BME280;12193;42.642;23.384;2023-04-26T11:18:45;93521.09;;;14.80;53.81
6425;BME280;12193;42.642;23.384;2023-04-26T11:21:15;93515.50;;;14.67;54.69
6425;BME280;12193;42.642;23.384;2023-04-26T11:23:52;93510.28;;;14.72;53.12
6425;BME280;12193;42.642;23.384;2023-04-26T11:26:22;93519.88;;;14.61;53.02
6425;BME280;12193;42.642;23.384;2023-04-26T11:28:52;93519.59;;;14.58;53.84
6425;BME280;12193;42.642;23.384;2023-04-26T11:31:21;93513.66;;;14.99;53.39
6425;BME280;12193;42.642;23.384;2023-04-26T11:33:53;93514.84;;;15.18;51.62
6425;BME280;12193;42.642;23.384;2023-04-26T11:36:22;93522.28;;;15.82;50.19
6425;BME280;12193;42.642;23.384;2023-04-26T11:38:52;93517.78;;;16.44;48.10
6425;BME280;12193;42.642;23.384;2023-04-26T11:41:22;93510.22;;;16.97;47.75
6425;BME280;12193;42.642;23.384;2023-04-26T11:43:52;93514.41;;;16.63;46.29
6425;BME280;12193;42.642;23.384;2023-04-26T11:46:22;93521.47;;;16.53;49.13
6425;BME280;12193;42.642;23.384;2023-04-26T11:48:54;93516.19;;;16.43;47.31
6425;BME280;12193;42.642;23.384;2023-04-26T11:51:24;93518.47;;;16.14;47.77
6425;BME280;12193;42.642;23.384;2023-04-26T11:53:55;93522.38;;;16.07;47.78
6425;BME280;12193;42.642;23.384;2023-04-26T11:56:28;93506.69;;;16.27;47.87
6425;BME280;12193;42.642;23.384;2023-04-26T11:58:57;93505.75;;;16.72;47.29
6425;BME280;12193;42.642;23.384;2023-04-26T12:01:28;93509.16;;;16.68;45.90
6425;BME280;12193;42.642;23.384;2023-04-26T12:04:01;93514.16;;;16.84;45.95
6425;BME280;12193;42.642;23.384;2023-04-26T12:06:34;93503.66;;;16.84;45.46
6425;BME280;12193;42.642;23.384;2023-04-26T12:09:09;93500.50;;;16.97;44.51
6425;BME280;12193;42.642;23.384;2023-04-26T12:11:39;93495.75;;;17.39;44.83
6425;BME280;12193;42.642;23.384;2023-04-26T12:14:08;93494.44;;;17.42;43.80
6425;BME280;12193;42.642;23.384;2023-04-26T12:16:38;93495.25;;;17.17;44.65
6425;BME280;12193;42.642;23.384;2023-04-26T12:19:09;93486.31;;;16.68;45.68
6425;BME280;12193;42.642;23.384;2023-04-26T12:21:39;93486.75;;;16.21;45.55
6425;BME280;12193;42.642;23.384;2023-04-26T12:24:24;93489.88;;;16.08;46.12
6425;BME280;12193;42.642;23.384;2023-04-26T12:26:55;93498.31;;;16.20;47.56
6425;BME280;12193;42.642;23.384;2023-04-26T12:29:24;93485.41;;;16.03;47.53
6425;BME280;12193;42.642;23.384;2023-04-26T12:31:55;93479.84;;;15.90;48.28
6425;BME280;12193;42.642;23.384;2023-04-26T12:34:27;93473.38;;;16.17;47.65
6425;BME280;12193;42.642;23.384;2023-04-26T12:36:56;93479.44;;;16.28;46.95
6425;BME280;12193;42.642;23.384;2023-04-26T12:39:26;93483.09;;;16.27;46.59
6425;BME280;12193;42.642;23.384;2023-04-26T12:41:55;93492.81;;;16.31;46.82
6425;BME280;12193;42.642;23.384;2023-04-26T12:44:24;93492.69;;;15.86;48.16
6425;BME280;12193;42.642;23.384;2023-04-26T12:46:54;93492.25;;;15.48;47.69
6425;BME280;12193;42.642;23.384;2023-04-26T12:49:23;93487.50;;;15.35;49.45
6425;BME280;12193;42.642;23.384;2023-04-26T12:51:57;93497.94;;;15.30;49.51
6425;BME280;12193;42.642;23.384;2023-04-26T12:54:27;93491.19;;;15.44;48.07
6425;BME280;12193;42.642;23.384;2023-04-26T12:56:56;93489.88;;;15.42;48.44
6425;BME280;12193;42.642;23.384;2023-04-26T12:59:25;93489.72;;;15.68;48.58
6425;BME280;12193;42.642;23.384;2023-04-26T13:01:54;93490.41;;;15.44;49.33
6425;BME280;12193;42.642;23.384;2023-04-26T13:04:24;93491.66;;;15.31;50.10
6425;BME280;12193;42.642;23.384;2023-04-26T13:06:53;93489.81;;;15.32;50.16
6425;BME280;12193;42.642;23.384;2023-04-26T13:09:25;93501.34;;;14.94;49.49
6425;BME280;12193;42.642;23.384;2023-04-26T13:11:55;93496.38;;;14.98;50.02
6425;BME280;12193;42.642;23.384;2023-04-26T13:14:24;93493.41;;;14.53;51.16
6425;BME280;12193;42.642;23.384;2023-04-26T13:16:53;93507.03;;;14.29;51.96
6425;BME280;12193;42.642;23.384;2023-04-26T13:19:23;93503.25;;;13.93;55.52
6425;BME280;12193;42.642;23.384;2023-04-26T13:21:52;93510.06;;;13.51;56.92
6425;BME280;12193;42.642;23.384;2023-04-26T13:24:24;93519.03;;;13.39;57.78
6425;BME280;12193;42.642;23.384;2023-04-26T13:26:53;93514.69;;;13.45;57.29
6425;BME280;12193;42.642;23.384;2023-04-26T13:29:23;93514.06;;;13.59;57.80
6425;BME280;12193;42.642;23.384;2023-04-26T13:31:52;93520.00;;;13.54;58.64
6425;BME280;12193;42.642;23.384;2023-04-26T13:34:21;93511.59;;;13.69;55.51
6425;BME280;12193;42.642;23.384;2023-04-26T13:36:51;93526.97;;;13.65;55.77
6425;BME280;12193;42.642;23.384;2023-04-26T13:39:24;93524.38;;;13.70;56.46
6425;BME280;12193;42.642;23.384;2023-04-26T13:41:55;93537.47;;;13.92;55.56
6425;BME280;12193;42.642;23.384;2023-04-26T13:44:25;93532.34;;;14.02;55.91
6425;BME280;12193;42.642;23.384;2023-04-26T13:46:54;93537.13;;;14.10;54.37
6425;BME280;12193;42.642;23.384;2023-04-26T13:49:25;93537.88;;;13.84;55.74
6425;BME280;12193;42.642;23.384;2023-04-26T13:51:54;93544.50;;;13.91;54.37
6425;BME280;12193;42.642;23.384;2023-04-26T13:54:26;93549.56;;;14.19;54.07
6425;BME280;12193;42.642;23.384;2023-04-26T13:56:56;93543.88;;;14.27;54.30
6425;BME280;12193;42.642;23.384;2023-04-26T13:59:25;93559.47;;;14.17;55.72
6425;BME280;12193;42.642;23.384;2023-04-26T14:01:55;93543.72;;;14.39;55.83
6425;BME280;12193;42.642;23.384;2023-04-26T14:04:24;93560.91;;;14.30;55.16
6425;BME280;12193;42.642;23.384;2023-04-26T14:06:54;93571.09;;;14.31;55.25
6425;BME280;12193;42.642;23.384;2023-04-26T14:09:25;93560.16;;;14.34;54.20
6425;BME280;12193;42.642;23.384;2023-04-26T14:11:55;93567.91;;;14.24;55.07
6425;BME280;12193;42.642;23.384;2023-04-26T14:14:24;93559.00;;;14.04;55.17
6425;BME280;12193;42.642;23.384;2023-04-26T14:16:54;93569.78;;;13.86;56.84
6425;BME280;12193;42.642;23.384;2023-04-26T14:19:24;93562.34;;;13.78;57.84
6425;BME280;12193;42.642;23.384;2023-04-26T14:21:53;93581.00;;;13.86;57.14
6425;BME280;12193;42.642;23.384;2023-04-26T14:24:22;93576.47;;;13.98;56.60
6425;BME280;12193;42.642;23.384;2023-04-26T14:26:55;93579.47;;;13.90;56.97
6425;BME280;12193;42.642;23.384;2023-04-26T14:29:24;93585.25;;;13.71;57.34
6425;BME280;12193;42.642;23.384;2023-04-26T14:31:54;93583.06;;;13.63;57.74
6425;BME280;12193;42.642;23.384;2023-04-26T14:34:23;93583.78;;;13.58;58.01
6425;BME280;12193;42.642;23.384;2023-04-26T14:36:52;93590.22;;;13.51;58.50
6425;BME280;12193;42.642;23.384;2023-04-26T14:39:26;93589.19;;;13.52;58.41
6425;BME280;12193;42.642;23.384;2023-04-26T14:41:58;93598.59;;;13.37;60.59
6425;BME280;12193;42.642;23.384;2023-04-26T14:44:28;93602.97;;;13.15;60.14
6425;BME280;12193;42.642;23.384;2023-04-26T14:46:58;93590.41;;;13.12;60.61
6425;BME280;12193;42.642;23.384;2023-04-26T14:49:27;93606.44;;;13.20;60.67
6425;BME280;12193;42.642;23.384;2023-04-26T14:51:56;93616.50;;;13.28;61.36
6425;BME280;12193;42.642;23.384;2023-04-26T14:54:26;93610.84;;;13.36;61.46
6425;BME280;12193;42.642;23.384;2023-04-26T14:56:59;93624.00;;;13.08;61.99
6425;BME280;12193;42.642;23.384;2023-04-26T14:59:28;93625.88;;;12.96;62.59
6425;BME280;12193;42.642;23.384;2023-04-26T15:01:57;93631.59;;;12.93;63.40
6425;BME280;12193;42.642;23.384;2023-04-26T15:04:27;93636.91;;;12.70;64.43
6425;BME280;12193;42.642;23.384;2023-04-26T15:06:56;93648.75;;;12.50;65.66
6425;BME280;12193;42.642;23.384;2023-04-26T15:09:25;93651.03;;;12.46;65.79
6425;BME280;12193;42.642;23.384;2023-04-26T15:11:58;93662.97;;;12.43;66.97
6425;BME280;12193;42.642;23.384;2023-04-26T15:14:27;93659.66;;;12.47;67.88
6425;BME280;12193;42.642;23.384;2023-04-26T15:16:57;93663.88;;;12.37;67.31
6425;BME280;12193;42.642;23.384;2023-04-26T15:19:26;93665.09;;;12.45;67.88
6425;BME280;12193;42.642;23.384;2023-04-26T15:21:56;93669.06;;;12.48;67.57
6425;BME280;12193;42.642;23.384;2023-04-26T15:24:26;93676.59;;;12.33;68.61
6425;BME280;12193;42.642;23.384;2023-04-26T15:26:58;93667.63;;;12.29;69.49
6425;BME280;12193;42.642;23.384;2023-04-26T15:29:30;93666.47;;;12.09;70.25
6425;BME280;12193;42.642;23.384;2023-04-26T15:31:59;93676.78;;;11.92;71.26
6425;BME280;12193;42.642;23.384;2023-04-26T15:34:38;93683.81;;;11.69;71.61
6425;BME280;12193;42.642;23.384;2023-04-26T15:37:09;93693.88;;;11.77;71.67
6425;BME280;12193;42.642;23.384;2023-04-26T15:39:38;93687.44;;;11.68;71.75
6425;BME280;12193;42.642;23.384;2023-04-26T15:42:10;93684.47;;;11.76;72.42
6425;BME280;12193;42.642;23.384;2023-04-26T15:44:39;93690.38;;;11.71;71.66
6425;BME280;12193;42.642;23.384;2023-04-26T15:47:09;93691.72;;;11.85;71.66
6425;BME280;12193;42.642;23.384;2023-04-26T15:49:38;93693.22;;;11.81;72.30
6425;BME280;12193;42.642;23.384;2023-04-26T15:52:07;93703.84;;;11.91;72.50
6425;BME280;12193;42.642;23.384;2023-04-26T15:54:37;93708.16;;;11.86;72.62
6425;BME280;12193;42.642;23.384;2023-04-26T15:57:06;93696.72;;;11.64;73.04
6425;BME280;12193;42.642;23.384;2023-04-26T15:59:38;93704.53;;;11.64;73.52
6425;BME280;12193;42.642;23.384;2023-04-26T16:02:07;93705.66;;;11.68;73.60
6425;BME280;12193;42.642;23.384;2023-04-26T16:04:37;93705.75;;;11.50;74.71
6425;BME280;12193;42.642;23.384;2023-04-26T16:07:06;93716.69;;;11.52;74.56
6425;BME280;12193;42.642;23.384;2023-04-26T16:09:35;93717.38;;;11.47;75.82
6425;BME280;12193;42.642;23.384;2023-04-26T16:12:06;93717.94;;;11.49;75.19
6425;BME280;12193;42.642;23.384;2023-04-26T16:14:37;93723.84;;;11.45;75.56
6425;BME280;12193;42.642;23.384;2023-04-26T16:17:07;93720.88;;;11.41;76.10
6425;BME280;12193;42.642;23.384;2023-04-26T16:19:36;93722.25;;;11.44;76.48
6425;BME280;12193;42.642;23.384;2023-04-26T16:22:05;93718.28;;;11.41;76.49
6425;BME280;12193;42.642;23.384;2023-04-26T16:24:35;93727.66;;;11.42;77.17
6425;BME280;12193;42.642;23.384;2023-04-26T16:27:05;93735.25;;;11.44;77.79
6425;BME280;12193;42.642;23.384;2023-04-26T16:29:34;93731.38;;;11.24;79.14